Time;durP1;ratioP1;P1;durP2;ratioP2;P2;SDS_P1;SDS_P2;PMS_P1;PMS_P2;Temp;Humidity;BMP_temperature;BMP_pressure;BME280_temperature;BME280_humidity;BME280_pressure;Samples;Min_cycle;Max_cycle;Signal;HPM_P1;HPM_P2
2022/08/26 00:00:39;;;;;;;3.72;3.38;;;;;;;18.89;88.42;95624.91;4952433;28;24488;-76
2022/08/26 00:03:05;;;;;;;5.97;3.58;;;;;;;19.01;87.81;95617.63;4958146;28;25021;-76
2022/08/26 00:05:32;;;;;;;5.13;3.50;;;;;;;19.07;87.10;95617.03;4949839;28;24442;-76
2022/08/26 00:07:59;;;;;;;5.05;3.28;;;;;;;19.09;86.78;95617.69;4952195;28;24441;-76
2022/08/26 00:10:26;;;;;;;5.90;3.67;;;;;;;19.21;84.49;95615.66;4957856;28;24442;-77
2022/08/26 00:12:52;;;;;;;5.35;3.50;;;;;;;19.27;83.60;95612.41;4958472;28;25182;-77
2022/08/26 00:15:20;;;;;;;4.15;3.50;;;;;;;18.90;85.23;95613.44;4951023;28;24476;-76
2022/08/26 00:17:48;;;;;;;5.30;3.30;;;;;;;18.60;87.34;95611.97;4953700;28;24450;-75
2022/08/26 00:20:17;;;;;;;7.68;4.00;;;;;;;18.48;88.21;95608.75;4949854;28;24449;-76
2022/08/26 00:22:43;;;;;;;3.88;3.05;;;;;;;18.43;89.00;95615.41;4954183;28;24438;-76
2022/08/26 00:25:11;;;;;;;4.15;3.58;;;;;;;18.48;88.82;95610.56;4955771;28;24441;-76
2022/08/26 00:27:39;;;;;;;3.75;3.45;;;;;;;18.52;88.41;95606.66;4952936;28;24533;-76
2022/08/26 00:30:08;;;;;;;4.93;3.40;;;;;;;18.34;90.10;95614.50;4951217;28;25015;-75
2022/08/26 00:32:36;;;;;;;5.43;3.67;;;;;;;18.18;92.19;95607.28;4960256;28;24449;-76
2022/08/26 00:35:04;;;;;;;6.15;4.10;;;;;;;18.28;92.38;95604.59;4953061;28;24437;-76
2022/08/26 00:37:30;;;;;;;6.72;4.15;;;;;;;18.25;92.71;95605.75;4961788;28;24449;-76
2022/08/26 00:39:57;;;;;;;4.95;3.85;;;;;;;18.09;93.14;95605.53;4953121;28;24439;-76
2022/08/26 00:42:26;;;;;;;6.65;3.80;;;;;;;18.10;92.43;95608.03;4956035;28;25027;-76
2022/08/26 00:44:53;;;;;;;6.20;4.10;;;;;;;17.86;94.02;95602.50;4952367;28;24498;-76
2022/08/26 00:47:25;;;;;;;4.70;3.97;;;;;;;17.81;94.34;95609.97;4956672;28;25082;-76
2022/08/26 00:49:52;;;;;;;6.85;3.60;;;;;;;17.87;94.49;95610.22;4952084;28;24442;-76
2022/08/26 00:52:21;;;;;;;4.60;3.80;;;;;;;17.75;95.21;95605.25;4959025;28;24468;-76
2022/08/26 00:54:55;;;;;;;6.60;4.00;;;;;;;17.72;95.34;95609.00;4952335;29;24442;-75
2022/08/26 00:57:22;;;;;;;3.72;3.42;;;;;;;17.77;95.04;95609.44;4953857;28;24489;-76
2022/08/26 00:59:55;;;;;;;4.15;3.58;;;;;;;17.69;96.05;95613.69;4956348;28;24453;-76
2022/08/26 01:02:22;;;;;;;5.00;3.58;;;;;;;17.68;96.93;95612.88;4953496;28;24469;-76
2022/08/26 01:04:51;;;;;;;4.68;3.53;;;;;;;17.81;95.51;95608.16;4953341;28;24466;-76
2022/08/26 01:07:18;;;;;;;5.03;3.60;;;;;;;17.76;96.17;95605.16;4953224;28;25195;-76
2022/08/26 01:09:45;;;;;;;4.00;3.60;;;;;;;17.76;96.29;95617.41;4953480;28;24537;-76
2022/08/26 01:12:12;;;;;;;5.05;3.55;;;;;;;17.77;96.59;95616.47;4953289;28;24465;-76
2022/08/26 01:14:39;;;;;;;6.20;3.60;;;;;;;17.78;96.34;95620.72;4954389;28;24430;-76
2022/08/26 01:17:09;;;;;;;4.43;3.60;;;;;;;17.70;97.65;95616.19;4959033;28;24446;-76
2022/08/26 01:19:42;;;;;;;5.18;3.78;;;;;;;17.75;96.45;95615.75;4951545;29;24469;-76
2022/08/26 01:22:12;;;;;;;4.18;3.55;;;;;;;17.77;96.73;95617.28;4948403;29;24445;-76
2022/08/26 01:24:41;;;;;;;5.22;3.85;;;;;;;17.78;96.37;95618.09;4951245;28;25002;-76
2022/08/26 01:27:09;;;;;;;5.10;3.90;;;;;;;17.80;96.35;95611.75;4947029;28;24446;-76
2022/08/26 01:29:39;;;;;;;4.40;3.60;;;;;;;17.89;96.03;95615.31;4952101;28;24445;-76
2022/08/26 01:32:08;;;;;;;3.83;3.53;;;;;;;17.96;95.84;95616.38;4952917;28;24454;-76
2022/08/26 01:34:37;;;;;;;3.97;3.67;;;;;;;18.03;95.18;95617.44;4952745;28;24996;-75
2022/08/26 01:37:06;;;;;;;3.97;3.40;;;;;;;18.02;95.00;95615.81;4953790;28;24457;-75
2022/08/26 01:39:35;;;;;;;5.18;3.97;;;;;;;17.85;97.16;95619.19;4949810;28;24489;-76
2022/08/26 01:42:07;;;;;;;4.65;3.95;;;;;;;17.86;97.24;95628.69;4958538;28;24433;-77
2022/08/26 01:44:39;;;;;;;4.15;3.58;;;;;;;17.92;96.55;95616.81;4949033;28;24441;-74
2022/08/26 01:47:07;;;;;;;3.80;3.50;;;;;;;17.97;95.13;95622.44;4952380;28;24446;-75
2022/08/26 01:49:36;;;;;;;3.45;3.15;;;;;;;17.95;93.76;95622.59;4955885;28;24434;-75
2022/08/26 01:52:05;;;;;;;3.80;3.27;;;;;;;17.84;93.17;95626.22;4954066;28;24449;-76
2022/08/26 01:54:32;;;;;;;3.95;3.20;;;;;;;17.77;94.10;95625.16;4952531;28;24434;-76
2022/08/26 01:56:59;;;;;;;4.22;3.10;;;;;;;17.77;93.48;95624.31;4946513;28;24504;-76
2022/08/26 01:59:29;;;;;;;3.78;3.47;;;;;;;17.67;93.66;95624.31;4956095;28;24446;-76
2022/08/26 02:01:56;;;;;;;4.00;3.10;;;;;;;17.55;94.36;95626.28;4946024;29;24437;-76
2022/08/26 02:04:27;;;;;;;3.95;3.55;;;;;;;17.45;95.22;95622.88;4948825;28;24470;-76
2022/08/26 02:06:55;;;;;;;4.13;3.13;;;;;;;17.35;96.95;95629.91;4945408;28;24438;-76
2022/08/26 02:09:22;;;;;;;4.55;3.83;;;;;;;17.33;95.91;95621.41;4948889;28;24533;-76
2022/08/26 02:11:49;;;;;;;3.95;3.20;;;;;;;17.36;93.86;95632.41;4940908;29;24886;-76
2022/08/26 02:14:19;;;;;;;3.50;3.20;;;;;;;17.22;94.54;95632.03;4941334;29;24442;-76
2022/08/26 02:16:50;;;;;;;5.05;3.70;;;;;;;17.03;95.38;95620.63;4945791;28;25027;-76
2022/08/26 02:19:19;;;;;;;3.90;3.42;;;;;;;16.90;97.25;95622.69;4949587;28;24438;-75
2022/08/26 02:21:48;;;;;;;4.63;3.83;;;;;;;16.83;99.22;95622.41;4947194;28;24972;-76
2022/08/26 02:24:17;;;;;;;4.07;3.67;;;;;;;16.78;100.00;95623.78;4950684;28;24517;-75
2022/08/26 02:26:45;;;;;;;4.25;3.75;;;;;;;16.82;100.00;95625.16;4951870;28;24496;-75
2022/08/26 02:29:19;;;;;;;4.60;3.58;;;;;;;16.91;100.00;95627.78;4951916;28;24437;-75
2022/08/26 02:31:47;;;;;;;3.90;3.50;;;;;;;17.04;100.00;95621.44;4963490;28;25070;-75
2022/08/26 02:34:16;;;;;;;4.10;3.70;;;;;;;17.09;99.45;95621.84;4950447;28;24457;-75
2022/08/26 02:36:42;;;;;;;4.32;3.92;;;;;;;17.10;99.90;95626.13;4947922;28;24438;-75
2022/08/26 02:39:10;;;;;;;4.72;3.70;;;;;;;17.09;100.00;95620.06;4950573;28;24453;-75
2022/08/26 02:41:37;;;;;;;4.18;3.78;;;;;;;17.10;100.00;95621.72;4947460;29;24972;-75
2022/08/26 02:44:05;;;;;;;6.35;4.00;;;;;;;17.12;100.00;95622.38;4950447;28;25003;-74
2022/08/26 02:46:32;;;;;;;3.85;3.45;;;;;;;17.12;100.00;95611.91;4946682;28;24490;-75
2022/08/26 02:49:00;;;;;;;4.50;3.67;;;;;;;17.21;100.00;95617.28;4954048;28;24453;-74
2022/08/26 02:51:27;;;;;;;5.03;3.78;;;;;;;17.21;100.00;95612.88;4948794;28;24967;-75
2022/08/26 02:53:53;;;;;;;4.38;3.80;;;;;;;17.24;98.97;95614.38;4952268;28;24442;-74
2022/08/26 02:56:19;;;;;;;4.57;3.83;;;;;;;17.25;98.79;95618.66;4953456;28;24809;-75
2022/08/26 02:58:46;;;;;;;4.40;3.80;;;;;;;17.19;98.88;95617.41;4958316;28;24469;-75
2022/08/26 03:01:20;;;;;;;4.05;3.42;;;;;;;17.10;98.48;95608.63;4953331;28;24442;-75
2022/08/26 03:03:47;;;;;;;4.67;3.57;;;;;;;17.17;98.21;95609.72;4951729;28;24438;-75
2022/08/26 03:06:14;;;;;;;4.22;3.78;;;;;;;16.89;97.37;95607.97;4953580;28;24438;-75
2022/08/26 03:08:41;;;;;;;6.18;3.78;;;;;;;16.67;99.10;95606.41;4950738;28;24439;-75
2022/08/26 03:11:07;;;;;;;4.57;4.15;;;;;;;16.61;100.00;95602.56;4953287;28;24484;-76
2022/08/26 03:13:35;;;;;;;6.67;3.80;;;;;;;16.51;100.00;95599.13;4951296;28;24465;-75
2022/08/26 03:16:02;;;;;;;4.35;3.83;;;;;;;16.45;100.00;95605.72;4945636;28;24442;-75
2022/08/26 03:18:29;;;;;;;4.90;4.13;;;;;;;16.57;100.00;95609.00;4956562;28;24496;-75
2022/08/26 03:20:55;;;;;;;3.80;3.50;;;;;;;16.60;100.00;95600.91;4951110;28;24438;-76
2022/08/26 03:23:24;;;;;;;4.05;3.47;;;;;;;16.57;100.00;95606.41;4962383;28;25173;-76
2022/08/26 03:25:51;;;;;;;5.03;4.00;;;;;;;16.50;100.00;95607.94;4952196;28;24470;-75
2022/08/26 03:28:18;;;;;;;5.60;4.30;;;;;;;16.60;100.00;95606.13;4948670;28;24983;-76
2022/08/26 03:30:43;;;;;;;6.13;4.43;;;;;;;16.57;100.00;95605.56;4948478;28;24812;-74
2022/08/26 03:33:11;;;;;;;6.93;4.03;;;;;;;16.39;100.00;95602.84;4951295;28;24605;-75
2022/08/26 03:35:39;;;;;;;4.05;3.67;;;;;;;16.39;100.00;95605.44;4951002;28;24468;-75
2022/08/26 03:38:07;;;;;;;4.43;3.90;;;;;;;16.42;100.00;95608.59;4946908;28;24453;-75
2022/08/26 03:40:35;;;;;;;5.07;4.57;;;;;;;16.58;100.00;95594.19;4944653;28;24434;-75
2022/08/26 03:43:03;;;;;;;5.80;4.25;;;;;;;16.68;100.00;95598.41;4945423;29;24433;-75
2022/08/26 03:45:29;;;;;;;4.28;3.88;;;;;;;16.68;100.00;95597.59;4945532;28;24441;-75
2022/08/26 03:47:56;;;;;;;4.07;3.78;;;;;;;16.55;100.00;95604.91;4953998;28;24442;-75
2022/08/26 03:50:23;;;;;;;4.63;4.07;;;;;;;16.40;100.00;95594.03;4946692;29;24501;-75
2022/08/26 03:52:51;;;;;;;4.43;4.03;;;;;;;16.39;100.00;95595.81;4951226;28;24458;-75
2022/08/26 03:55:18;;;;;;;4.95;4.10;;;;;;;16.34;100.00;95594.56;4946863;28;24446;-74
2022/08/26 03:57:46;;;;;;;5.10;4.20;;;;;;;16.24;100.00;95596.31;4949279;28;24463;-75
2022/08/26 04:00:16;;;;;;;4.35;3.95;;;;;;;16.21;100.00;95602.66;4950562;28;24446;-75
2022/08/26 04:02:44;;;;;;;4.45;3.95;;;;;;;16.26;100.00;95589.19;4950903;28;25213;-75
2022/08/26 04:05:12;;;;;;;4.35;3.95;;;;;;;16.30;100.00;95594.00;4947670;28;24445;-75
2022/08/26 04:07:38;;;;;;;4.43;4.03;;;;;;;16.34;100.00;95590.16;4957889;28;24449;-75
2022/08/26 04:10:06;;;;;;;6.80;4.15;;;;;;;16.29;100.00;95592.38;4952574;28;24446;-75
2022/08/26 04:12:33;;;;;;;4.32;3.95;;;;;;;16.26;100.00;95589.19;4952783;28;24992;-75
2022/08/26 04:15:01;;;;;;;4.40;4.00;;;;;;;16.34;100.00;95591.94;4952142;28;24447;-75
2022/08/26 04:17:28;;;;;;;4.32;3.90;;;;;;;16.34;100.00;95597.16;4951964;28;24988;-75
2022/08/26 04:19:54;;;;;;;4.80;4.05;;;;;;;16.35;100.00;95593.59;4952300;28;24557;-73
2022/08/26 04:22:21;;;;;;;4.27;3.90;;;;;;;16.36;100.00;95600.50;4952408;28;24426;-73
2022/08/26 04:24:47;;;;;;;4.20;3.80;;;;;;;16.37;100.00;95600.34;4950415;29;24497;-74
2022/08/26 04:27:14;;;;;;;5.57;4.28;;;;;;;16.38;100.00;95593.31;4951063;28;24449;-73
2022/08/26 04:29:42;;;;;;;4.55;4.07;;;;;;;16.44;100.00;95591.00;4952741;28;24570;-73
2022/08/26 04:32:10;;;;;;;5.32;4.15;;;;;;;16.44;100.00;95590.19;4953069;28;24458;-73
2022/08/26 04:34:37;;;;;;;5.80;4.25;;;;;;;16.39;100.00;95587.97;4952750;28;24453;-73
2022/08/26 04:37:05;;;;;;;4.87;4.37;;;;;;;16.39;100.00;95589.78;4953683;28;24583;-73
2022/08/26 04:39:32;;;;;;;4.20;3.80;;;;;;;16.44;100.00;95598.84;4951438;28;24557;-73
2022/08/26 04:41:59;;;;;;;4.22;3.58;;;;;;;16.49;100.00;95593.19;4946529;29;24445;-73
2022/08/26 04:44:28;;;;;;;8.02;3.83;;;;;;;16.46;100.00;95593.47;4953589;28;24442;-74
2022/08/26 04:46:55;;;;;;;4.45;3.40;;;;;;;16.32;99.60;95592.09;4954853;28;24493;-75
2022/08/26 04:49:23;;;;;;;4.38;3.97;;;;;;;16.29;100.00;95587.13;4952701;28;24497;-74
2022/08/26 04:51:49;;;;;;;4.88;4.03;;;;;;;16.05;100.00;95594.50;4938645;29;24485;-74
2022/08/26 04:54:16;;;;;;;4.78;4.25;;;;;;;16.01;100.00;95593.94;4952997;28;24477;-74
2022/08/26 04:56:45;;;;;;;5.85;4.43;;;;;;;16.11;100.00;95594.81;4950153;28;24437;-74
2022/08/26 04:59:14;;;;;;;4.45;4.05;;;;;;;16.13;100.00;95598.13;4952456;28;24434;-74
2022/08/26 05:01:43;;;;;;;5.25;4.43;;;;;;;16.24;100.00;95591.09;4954074;28;24475;-74
2022/08/26 05:04:10;;;;;;;4.60;4.20;;;;;;;16.16;100.00;95602.22;4952156;28;24529;-75
2022/08/26 05:06:38;;;;;;;7.13;4.10;;;;;;;16.19;100.00;95600.16;4949247;28;24994;-75
2022/08/26 05:09:04;;;;;;;7.32;4.82;;;;;;;16.14;100.00;95605.00;4952004;28;24534;-75
2022/08/26 05:11:31;;;;;;;5.75;4.63;;;;;;;16.12;100.00;95598.22;4952453;28;24453;-74
2022/08/26 05:13:57;;;;;;;7.90;4.73;;;;;;;16.00;100.00;95604.53;4951819;28;24469;-75
2022/08/26 05:16:24;;;;;;;5.10;4.60;;;;;;;15.97;100.00;95598.59;4953103;28;24438;-75
2022/08/26 05:18:51;;;;;;;5.95;4.78;;;;;;;15.94;100.00;95601.50;4945710;28;24438;-74
2022/08/26 05:21:20;;;;;;;4.53;4.10;;;;;;;16.02;100.00;95607.81;4952702;28;24526;-74
2022/08/26 05:23:50;;;;;;;5.00;4.47;;;;;;;16.12;100.00;95606.91;4953501;28;24428;-74
2022/08/26 05:26:17;;;;;;;8.18;4.20;;;;;;;16.16;100.00;95602.22;4953215;28;24438;-75
2022/08/26 05:28:44;;;;;;;7.00;4.95;;;;;;;16.10;100.00;95601.00;4958227;28;24445;-74
2022/08/26 05:31:15;;;;;;;6.05;4.80;;;;;;;16.05;100.00;95610.19;4949461;28;24446;-75
2022/08/26 05:33:42;;;;;;;7.50;5.13;;;;;;;15.86;100.00;95616.19;4952044;28;24462;-74
2022/08/26 05:36:11;;;;;;;6.13;5.13;;;;;;;15.80;100.00;95614.09;4951739;28;24562;-73
2022/08/26 05:38:37;;;;;;;6.82;5.20;;;;;;;15.84;100.00;95613.72;4943811;28;24435;-73
2022/08/26 05:41:14;;;;;;;6.35;5.03;;;;;;;16.10;100.00;95608.84;4946430;28;24449;-76
2022/08/26 05:43:40;;;;;;;6.00;4.80;;;;;;;16.42;100.00;95618.22;4947175;28;24426;-76
2022/08/26 05:46:07;;;;;;;6.85;4.50;;;;;;;16.67;100.00;95617.69;4957910;28;24856;-76
2022/08/26 05:48:34;;;;;;;5.22;4.72;;;;;;;16.93;100.00;95609.31;4950452;28;24450;-75
2022/08/26 05:51:03;;;;;;;5.20;4.70;;;;;;;17.25;100.00;95614.25;4956712;28;24492;-77
2022/08/26 05:53:30;;;;;;;6.15;5.13;;;;;;;17.47;100.00;95620.94;4953863;28;24454;-78
2022/08/26 05:55:57;;;;;;;6.80;4.72;;;;;;;17.58;100.00;95625.19;4943284;29;24446;-77
2022/08/26 05:58:25;;;;;;;6.00;4.80;;;;;;;17.70;100.00;95620.59;4952604;28;24938;-76
2022/08/26 06:00:57;;;;;;;6.40;4.82;;;;;;;17.87;100.00;95619.84;4949606;28;24438;-76
2022/08/26 06:03:24;;;;;;;10.48;5.47;;;;;;;17.98;100.00;95621.47;4952065;28;24964;-76
2022/08/26 06:05:50;;;;;;;7.97;4.72;;;;;;;18.16;100.00;95624.94;4949366;28;24450;-76
2022/08/26 06:08:19;;;;;;;6.70;5.30;;;;;;;18.29;100.00;95628.06;4944470;28;24836;-76
2022/08/26 06:10:48;;;;;;;8.50;5.30;;;;;;;18.40;100.00;95632.28;4943698;29;24498;-76
2022/08/26 06:13:15;;;;;;;7.10;4.70;;;;;;;18.56;100.00;95632.44;4947858;28;24500;-75
2022/08/26 06:15:46;;;;;;;12.98;5.10;;;;;;;18.68;99.94;95625.16;4950489;28;24534;-71
2022/08/26 06:18:14;;;;;;;6.43;5.03;;;;;;;18.89;100.00;95631.97;4949846;28;24453;-76
2022/08/26 06:20:42;;;;;;;8.30;4.70;;;;;;;19.01;99.52;95633.38;4952047;28;25011;-76
2022/08/26 06:25:54;;;;;;;5.53;4.57;;;;;;;19.26;94.29;95629.13;4953632;28;24433;-75
2022/08/26 06:28:20;;;;;;;4.65;4.18;;;;;;;19.45;94.50;95630.75;4953491;28;24446;-74
2022/08/26 06:30:49;;;;;;;5.55;4.95;;;;;;;19.58;93.15;95631.16;4947706;28;24441;-74
2022/08/26 06:33:15;;;;;;;11.52;5.22;;;;;;;19.66;90.14;95635.69;4955470;28;25047;-75
2022/08/26 06:35:42;;;;;;;5.80;4.82;;;;;;;19.72;91.03;95635.03;4951881;28;24992;-75
2022/08/26 06:38:09;;;;;;;5.67;4.80;;;;;;;19.45;90.26;95634.19;4944463;28;24540;-76
2022/08/26 06:40:41;;;;;;;5.47;4.97;;;;;;;19.24;92.60;95633.69;4937123;28;24439;-76
2022/08/26 06:43:08;;;;;;;6.10;4.97;;;;;;;19.15;92.54;95637.25;4946996;29;24484;-77
2022/08/26 06:45:34;;;;;;;7.55;5.07;;;;;;;19.13;93.28;95641.81;4945042;28;24534;-76
2022/08/26 06:48:02;;;;;;;5.28;4.78;;;;;;;19.33;92.35;95643.31;4955221;28;24438;-75
2022/08/26 06:50:29;;;;;;;6.73;4.73;;;;;;;19.68;92.16;95636.31;4947276;28;24521;-77
2022/08/26 06:52:55;;;;;;;5.95;4.55;;;;;;;20.03;89.82;95643.25;4952678;28;24458;-75
2022/08/26 06:55:22;;;;;;;6.68;4.53;;;;;;;20.36;88.72;95641.56;4947475;28;24440;-76
2022/08/26 06:57:49;;;;;;;6.43;4.80;;;;;;;20.71;86.04;95631.81;4949848;29;24453;-77
2022/08/26 07:00:17;;;;;;;7.00;4.55;;;;;;;20.81;82.87;95639.56;4951143;28;24818;-75
2022/08/26 07:02:43;;;;;;;5.65;5.05;;;;;;;21.11;83.38;95635.47;4950951;28;24438;-77
2022/08/26 07:05:12;;;;;;;5.32;4.78;;;;;;;21.49;81.54;95634.81;4951375;28;24805;-76
2022/08/26 07:07:38;;;;;;;6.30;4.68;;;;;;;21.73;79.97;95641.03;4951135;28;24496;-76
2022/08/26 07:10:07;;;;;;;4.80;4.30;;;;;;;21.94;79.92;95641.28;4954216;28;24441;-76
2022/08/26 07:12:34;;;;;;;5.85;4.18;;;;;;;22.08;77.61;95631.84;4953376;28;24437;-77
2022/08/26 07:15:00;;;;;;;5.95;4.28;;;;;;;21.99;78.65;95641.63;4957664;28;24509;-74
2022/08/26 07:17:27;;;;;;;6.82;4.40;;;;;;;22.32;76.53;95640.69;4946169;28;24845;-75
2022/08/26 07:19:53;;;;;;;5.32;4.25;;;;;;;22.56;74.43;95640.56;4947903;28;24444;-75
2022/08/26 07:22:21;;;;;;;7.90;4.50;;;;;;;22.27;75.79;95641.22;4951434;28;24489;-75
2022/08/26 07:24:48;;;;;;;6.60;4.70;;;;;;;22.08;76.72;95650.31;4944121;29;24463;-76
2022/08/26 07:27:16;;;;;;;4.63;3.95;;;;;;;22.17;76.63;95643.22;4950775;28;24442;-76
2022/08/26 07:29:43;;;;;;;6.43;4.05;;;;;;;22.57;76.62;95638.75;4948479;28;24785;-75
2022/08/26 07:32:12;;;;;;;7.20;4.38;;;;;;;23.03;74.86;95641.47;4951975;28;24442;-75
2022/08/26 07:34:39;;;;;;;7.22;4.43;;;;;;;23.41;71.88;95639.66;4949579;28;24450;-74
2022/08/26 07:37:06;;;;;;;5.23;4.30;;;;;;;23.68;70.71;95640.94;4950987;28;25061;-76
2022/08/26 07:39:34;;;;;;;5.07;4.13;;;;;;;23.81;69.68;95651.72;4948709;28;24437;-76
2022/08/26 07:42:01;;;;;;;10.48;4.22;;;;;;;23.77;69.80;95639.84;4951293;28;24845;-75
2022/08/26 07:44:28;;;;;;;5.97;3.80;;;;;;;23.97;69.92;95641.97;4951358;28;24438;-76
2022/08/26 07:46:55;;;;;;;10.18;4.32;;;;;;;24.19;68.52;95642.88;4950239;28;24478;-76
2022/08/26 07:49:23;;;;;;;7.78;4.10;;;;;;;24.14;68.87;95646.06;4951916;28;25015;-76
2022/08/26 07:51:49;;;;;;;11.20;4.20;;;;;;;24.49;67.87;95641.84;4951310;28;24867;-76
2022/08/26 07:54:17;;;;;;;9.88;4.15;;;;;;;24.41;66.91;95638.50;4953894;29;24473;-76
2022/08/26 07:56:46;;;;;;;8.88;4.15;;;;;;;24.34;67.43;95641.84;4951971;28;24603;-75
2022/08/26 07:59:13;;;;;;;9.07;4.07;;;;;;;24.36;67.41;95641.63;4952630;28;24446;-76
2022/08/26 08:01:40;;;;;;;8.65;3.90;;;;;;;24.47;66.54;95645.66;4955972;28;24430;-76
2022/08/26 08:04:06;;;;;;;8.13;3.33;;;;;;;24.56;66.54;95640.09;4954587;28;24430;-74
2022/08/26 08:06:33;;;;;;;9.13;3.75;;;;;;;24.94;64.75;95641.72;4947377;28;25036;-76
2022/08/26 08:09:00;;;;;;;5.05;3.60;;;;;;;24.96;64.30;95637.06;4953139;28;24525;-75
2022/08/26 08:11:29;;;;;;;5.82;3.17;;;;;;;25.07;63.27;95634.72;4954601;28;24514;-75
2022/08/26 08:13:59;;;;;;;6.05;3.50;;;;;;;25.44;63.21;95635.47;4958999;28;24460;-75
2022/08/26 08:16:27;;;;;;;9.55;3.53;;;;;;;25.64;61.50;95634.81;4957373;28;24474;-75
2022/08/26 08:18:53;;;;;;;4.50;3.47;;;;;;;25.70;61.54;95637.53;4950187;29;24440;-75
2022/08/26 08:21:20;;;;;;;6.18;3.67;;;;;;;25.83;60.73;95637.63;4955587;28;24793;-75
2022/08/26 08:23:46;;;;;;;5.68;3.90;;;;;;;25.81;60.64;95639.66;4954100;28;24948;-75
2022/08/26 08:26:13;;;;;;;5.63;3.65;;;;;;;25.74;61.04;95638.75;4958287;28;24511;-75
2022/08/26 08:28:39;;;;;;;5.40;3.50;;;;;;;25.96;60.23;95634.25;4954461;28;24445;-76
2022/08/26 08:31:07;;;;;;;4.53;3.35;;;;;;;26.20;59.99;95626.81;4961471;28;24461;-75
2022/08/26 08:33:34;;;;;;;6.00;3.40;;;;;;;26.45;58.62;95629.78;4950658;28;24462;-75
2022/08/26 08:36:01;;;;;;;7.97;3.75;;;;;;;26.91;57.99;95631.78;4954385;28;24433;-75
2022/08/26 08:38:28;;;;;;;6.90;3.60;;;;;;;27.31;54.83;95631.88;4949770;28;24446;-75
2022/08/26 08:40:54;;;;;;;8.90;3.97;;;;;;;27.26;53.58;95635.97;4952240;28;24442;-75
2022/08/26 08:43:32;;;;;;;7.07;3.97;;;;;;;27.61;53.77;95638.41;4955860;28;24446;-75
2022/08/26 08:46:05;;;;;;;8.40;4.28;;;;;;;27.64;53.07;95634.53;4948969;29;24448;-76
2022/08/26 08:48:36;;;;;;;7.75;4.28;;;;;;;28.01;52.40;95635.72;4953414;28;24442;-76
2022/08/26 08:51:13;;;;;;;10.63;4.53;;;;;;;28.07;51.95;95642.06;4953870;28;24446;-76
2022/08/26 08:53:42;;;;;;;13.85;4.70;;;;;;;28.05;51.14;95639.59;4950673;28;24545;-75
2022/08/26 08:56:19;;;;;;;8.50;4.43;;;;;;;28.32;51.87;95634.19;4952478;28;24441;-75
2022/08/26 08:58:52;;;;;;;6.05;4.30;;;;;;;27.80;50.74;95626.13;4953564;28;24536;-75
2022/08/26 09:01:38;;;;;;;5.20;3.92;;;;;;;28.24;51.48;95632.59;4947937;28;24466;-76
2022/08/26 09:04:19;;;;;;;8.45;4.55;;;;;;;28.61;50.38;95628.38;4952797;28;24460;-76
2022/08/26 09:06:46;;;;;;;9.68;4.20;;;;;;;28.55;49.07;95629.22;4948286;28;24800;-76
2022/08/26 09:09:20;;;;;;;5.88;4.20;;;;;;;27.91;51.05;95630.81;4946536;28;24439;-77
2022/08/26 09:11:47;;;;;;;6.97;5.00;;;;;;;28.10;50.36;95621.16;4949227;29;24437;-76
2022/08/26 09:14:13;;;;;;;9.75;4.97;;;;;;;28.13;51.32;95626.06;4953647;28;24462;-76
2022/08/26 09:16:50;;;;;;;9.87;4.73;;;;;;;28.32;50.40;95620.88;4954248;28;24438;-76
2022/08/26 09:19:27;;;;;;;7.07;4.35;;;;;;;28.49;51.07;95615.94;4950715;28;24476;-76
2022/08/26 09:21:57;;;;;;;5.90;4.30;;;;;;;28.50;50.07;95610.41;4955589;28;24441;-76
2022/08/26 09:24:23;;;;;;;8.55;4.88;;;;;;;27.99;50.53;95619.13;4953254;28;24929;-76
2022/08/26 09:26:51;;;;;;;18.75;5.35;;;;;;;28.51;51.42;95617.34;4950524;28;24438;-76
2022/08/26 09:29:23;;;;;;;6.63;4.38;;;;;;;28.73;51.55;95607.19;4953413;28;24988;-76
2022/08/26 09:31:51;;;;;;;7.47;4.30;;;;;;;28.91;47.73;95601.97;4957440;28;24434;-76
2022/08/26 09:34:22;;;;;;;11.30;4.80;;;;;;;29.02;47.24;95602.34;4953229;28;24843;-76
2022/08/26 09:36:50;;;;;;;8.82;4.50;;;;;;;28.97;47.09;95600.31;4956284;28;24469;-76
2022/08/26 09:39:29;;;;;;;8.50;4.20;;;;;;;28.73;46.64;95599.19;4949964;28;24475;-76
2022/08/26 09:42:21;;;;;;;6.45;4.30;;;;;;;28.87;46.40;95595.44;4946426;29;24433;-76
2022/08/26 09:44:58;;;;;;;7.90;4.73;;;;;;;29.14;46.58;95597.94;4942177;29;24433;-76
2022/08/26 09:47:29;;;;;;;7.80;4.32;;;;;;;28.36;48.27;95606.94;4952716;28;24501;-76
2022/08/26 09:50:02;;;;;;;7.38;5.03;;;;;;;28.28;49.55;95604.50;4950204;28;24506;-76
2022/08/26 09:52:29;;;;;;;8.50;4.15;;;;;;;27.95;48.93;95608.09;4951815;28;24437;-76
2022/08/26 09:55:04;;;;;;;7.78;4.40;;;;;;;27.81;49.68;95598.53;4946790;29;24462;-76
2022/08/26 09:57:32;;;;;;;8.80;4.45;;;;;;;27.65;51.01;95597.06;4951762;28;24449;-76
2022/08/26 10:00:00;;;;;;;8.32;4.40;;;;;;;27.27;50.82;95595.03;4952180;28;25066;-76
2022/08/26 10:02:40;;;;;;;10.77;4.90;;;;;;;27.39;50.49;95584.59;4949999;28;24446;-76
2022/08/26 10:05:15;;;;;;;8.80;4.65;;;;;;;27.41;51.35;95576.44;4950366;28;24466;-75
2022/08/26 10:07:46;;;;;;;12.05;4.50;;;;;;;28.31;49.44;95573.97;4949436;28;25233;-76
2022/08/26 10:10:22;;;;;;;11.48;4.82;;;;;;;28.82;46.79;95565.94;4953526;28;24476;-76
2022/08/26 10:12:55;;;;;;;6.93;4.30;;;;;;;29.40;48.19;95563.06;4949125;28;24575;-76
2022/08/26 10:15:24;;;;;;;15.25;5.10;;;;;;;29.61;44.23;95563.72;4947147;29;24564;-76
2022/08/26 10:17:59;;;;;;;12.05;4.40;;;;;;;29.73;44.96;95564.63;4949383;28;24493;-76
2022/08/26 10:20:32;;;;;;;12.77;4.97;;;;;;;30.03;43.13;95562.03;4953958;28;24433;-76
2022/08/26 10:23:03;;;;;;;8.18;4.40;;;;;;;30.03;43.04;95562.03;4947668;28;25033;-76
2022/08/26 10:25:34;;;;;;;9.13;4.25;;;;;;;29.17;44.21;95558.34;4950833;28;24422;-76
2022/08/26 10:28:07;;;;;;;9.30;4.22;;;;;;;29.12;45.17;95554.69;4949512;28;24466;-76
2022/08/26 10:30:40;;;;;;;8.77;4.45;;;;;;;28.90;44.58;95556.88;4951080;28;24465;-76
2022/08/26 10:33:10;;;;;;;10.13;4.18;;;;;;;28.52;46.21;95557.72;4948380;28;24462;-76
2022/08/26 10:35:45;;;;;;;6.47;4.40;;;;;;;28.49;45.85;95560.81;4957780;28;24816;-76
2022/08/26 10:38:19;;;;;;;9.70;4.40;;;;;;;28.25;45.64;95561.50;4948611;28;24438;-76
2022/08/26 10:40:54;;;;;;;8.27;4.50;;;;;;;28.05;46.32;95554.41;4951162;28;24441;-76
2022/08/26 10:43:25;;;;;;;10.25;4.60;;;;;;;27.88;47.59;95564.69;4948581;28;24879;-76
2022/08/26 10:45:54;;;;;;;8.18;4.80;;;;;;;27.37;47.91;95567.25;4959003;28;24440;-76
2022/08/26 10:48:24;;;;;;;8.02;4.25;;;;;;;27.19;49.18;95555.38;4952271;28;25065;-76
2022/08/26 10:50:52;;;;;;;7.43;4.47;;;;;;;26.89;49.11;95562.91;4944543;29;24438;-76
2022/08/26 10:53:27;;;;;;;9.27;4.07;;;;;;;26.97;48.64;95557.38;4948871;28;24453;-76
2022/08/26 10:56:00;;;;;;;9.37;4.63;;;;;;;27.01;48.09;95552.47;4951731;28;24441;-76
2022/08/26 10:58:40;;;;;;;8.38;4.47;;;;;;;27.05;49.21;95559.03;4948910;28;24518;-76
2022/08/26 11:04:06;;;;;;;6.78;4.55;;;;;;;26.94;49.87;95546.34;4950459;28;24401;-76
2022/08/26 11:06:34;;;;;;;13.77;4.72;;;;;;;27.14;50.31;95544.53;4951258;28;24433;-75
2022/08/26 11:09:03;;;;;;;7.57;4.35;;;;;;;27.36;48.74;95544.31;4948752;28;24438;-76
2022/08/26 11:11:46;;;;;;;6.00;4.15;;;;;;;27.35;48.40;95537.38;4951104;28;24438;-76
2022/08/26 11:14:39;;;;;;;7.88;4.63;;;;;;;26.85;49.40;95537.75;4949318;28;24517;-76
2022/08/26 11:17:10;;;;;;;7.60;4.35;;;;;;;26.76;49.86;95533.66;4940973;28;24471;-76
2022/08/26 11:20:00;;;;;;;8.52;4.30;;;;;;;26.70;50.81;95534.47;4951047;28;24434;-76
2022/08/26 11:22:30;;;;;;;9.77;4.90;;;;;;;26.59;50.03;95527.91;4955726;28;24441;-75
2022/08/26 11:25:05;;;;;;;11.73;4.82;;;;;;;26.52;50.73;95533.22;4959951;28;25030;-76
2022/08/26 11:28:02;;;;;;;7.18;4.45;;;;;;;26.70;50.43;95540.59;4956118;28;24509;-75
2022/08/26 11:30:36;;;;;;;7.60;4.30;;;;;;;26.58;51.04;95528.09;4951952;29;25011;-76
2022/08/26 11:33:03;;;;;;;7.72;4.53;;;;;;;26.51;50.50;95526.28;4949390;29;24984;-76
2022/08/26 11:35:53;;;;;;;6.82;4.38;;;;;;;26.55;51.53;95521.38;4954438;28;24804;-79
2022/08/26 11:38:27;;;;;;;9.75;5.03;;;;;;;26.71;50.47;95525.47;4933076;28;24450;-78
2022/08/26 11:41:08;;;;;;;7.85;4.38;;;;;;;26.54;51.41;95531.16;4951144;28;24434;-78
2022/08/26 11:43:37;;;;;;;8.43;4.93;;;;;;;26.45;51.33;95523.56;4946536;29;24485;-78